sensor_id;sensor_type;location;lat;lon;timestamp;P1;durP1;ratioP1;P2;durP2;ratioP2
15931;SDS011;8065;49.520;11.284;2023-07-29T00:02:28;3.40;;;2.67;;
15931;SDS011;8065;49.520;11.284;2023-07-29T00:05:00;3.17;;;2.80;;
15931;SDS011;8065;49.520;11.284;2023-07-29T00:07:28;2.70;;;2.50;;
15931;SDS011;8065;49.520;11.284;2023-07-29T00:09:56;3.00;;;2.70;;
15931;SDS011;8065;49.520;11.284;2023-07-29T00:12:25;3.47;;;2.77;;
15931;SDS011;8065;49.520;11.284;2023-07-29T00:14:53;2.90;;;2.70;;
15931;SDS011;8065;49.520;11.284;2023-07-29T00:17:21;5.63;;;3.37;;
15931;SDS011;8065;49.520;11.284;2023-07-29T00:19:49;2.70;;;2.50;;
15931;SDS011;8065;49.520;11.284;2023-07-29T00:22:20;3.20;;;2.90;;
15931;SDS011;8065;49.520;11.284;2023-07-29T00:24:51;3.00;;;2.80;;
15931;SDS011;8065;49.520;11.284;2023-07-29T00:27:20;2.90;;;2.70;;
15931;SDS011;8065;49.520;11.284;2023-07-29T00:29:48;3.30;;;3.00;;
15931;SDS011;8065;49.520;11.284;2023-07-29T00:32:17;4.27;;;2.80;;
15931;SDS011;8065;49.520;11.284;2023-07-29T00:34:45;3.37;;;3.07;;
15931;SDS011;8065;49.520;11.284;2023-07-29T00:37:13;3.20;;;3.00;;
15931;SDS011;8065;49.520;11.284;2023-07-29T00:39:44;3.17;;;2.90;;
15931;SDS011;8065;49.520;11.284;2023-07-29T00:42:12;2.93;;;2.73;;
15931;SDS011;8065;49.520;11.284;2023-07-29T00:44:41;3.30;;;3.10;;
15931;SDS011;8065;49.520;11.284;2023-07-29T00:47:09;4.33;;;3.20;;
15931;SDS011;8065;49.520;11.284;2023-07-29T00:49:39;3.57;;;3.27;;
15931;SDS011;8065;49.520;11.284;2023-07-29T00:52:07;3.43;;;3.00;;
15931;SDS011;8065;49.520;11.284;2023-07-29T00:54:37;3.40;;;3.10;;
15931;SDS011;8065;49.520;11.284;2023-07-29T00:57:08;3.30;;;3.00;;
15931;SDS011;8065;49.520;11.284;2023-07-29T00:59:41;3.50;;;3.13;;
15931;SDS011;8065;49.520;11.284;2023-07-29T01:02:09;3.73;;;2.60;;
15931;SDS011;8065;49.520;11.284;2023-07-29T01:04:38;3.20;;;3.00;;
15931;SDS011;8065;49.520;11.284;2023-07-29T01:10:19;3.47;;;2.90;;
15931;SDS011;8065;49.520;11.284;2023-07-29T01:13:02;3.63;;;3.33;;
15931;SDS011;8065;49.520;11.284;2023-07-29T01:15:36;3.37;;;3.07;;
15931;SDS011;8065;49.520;11.284;2023-07-29T01:18:12;3.53;;;3.23;;
15931;SDS011;8065;49.520;11.284;2023-07-29T01:20:46;5.37;;;3.23;;
15931;SDS011;8065;49.520;11.284;2023-07-29T01:23:15;4.17;;;3.10;;
15931;SDS011;8065;49.520;11.284;2023-07-29T01:25:46;4.00;;;3.60;;
15931;SDS011;8065;49.520;11.284;2023-07-29T01:28:15;3.40;;;3.07;;
15931;SDS011;8065;49.520;11.284;2023-07-29T01:30:43;3.70;;;3.40;;
15931;SDS011;8065;49.520;11.284;2023-07-29T01:33:14;3.40;;;3.10;;
15931;SDS011;8065;49.520;11.284;2023-07-29T01:35:46;3.40;;;3.10;;
15931;SDS011;8065;49.520;11.284;2023-07-29T01:38:18;4.23;;;3.50;;
15931;SDS011;8065;49.520;11.284;2023-07-29T01:40:53;3.63;;;3.33;;
15931;SDS011;8065;49.520;11.284;2023-07-29T01:43:22;5.53;;;3.57;;
15931;SDS011;8065;49.520;11.284;2023-07-29T01:45:51;3.53;;;3.23;;
15931;SDS011;8065;49.520;11.284;2023-07-29T01:48:19;3.47;;;3.20;;
15931;SDS011;8065;49.520;11.284;2023-07-29T01:50:47;4.83;;;3.37;;
15931;SDS011;8065;49.520;11.284;2023-07-29T01:53:16;3.13;;;2.93;;
15931;SDS011;8065;49.520;11.284;2023-07-29T01:55:44;3.23;;;3.03;;
15931;SDS011;8065;49.520;11.284;2023-07-29T01:58:15;4.20;;;3.50;;
15931;SDS011;8065;49.520;11.284;2023-07-29T02:00:43;3.50;;;3.17;;
15931;SDS011;8065;49.520;11.284;2023-07-29T02:03:11;3.63;;;3.30;;
15931;SDS011;8065;49.520;11.284;2023-07-29T02:05:40;3.77;;;3.10;;
15931;SDS011;8065;49.520;11.284;2023-07-29T02:08:08;3.70;;;3.40;;
15931;SDS011;8065;49.520;11.284;2023-07-29T02:10:37;3.23;;;3.03;;
15931;SDS011;8065;49.520;11.284;2023-07-29T02:13:05;3.60;;;3.00;;
15931;SDS011;8065;49.520;11.284;2023-07-29T02:15:36;3.43;;;3.23;;
15931;SDS011;8065;49.520;11.284;2023-07-29T02:18:05;4.13;;;3.33;;
15931;SDS011;8065;49.520;11.284;2023-07-29T02:20:33;3.73;;;3.43;;
15931;SDS011;8065;49.520;11.284;2023-07-29T02:23:01;3.57;;;3.20;;
15931;SDS011;8065;49.520;11.284;2023-07-29T02:25:29;3.93;;;3.63;;
15931;SDS011;8065;49.520;11.284;2023-07-29T02:27:58;3.77;;;3.47;;
15931;SDS011;8065;49.520;11.284;2023-07-29T02:30:26;4.17;;;3.77;;
15931;SDS011;8065;49.520;11.284;2023-07-29T02:32:57;4.60;;;3.40;;
15931;SDS011;8065;49.520;11.284;2023-07-29T02:35:26;3.90;;;3.50;;
15931;SDS011;8065;49.520;11.284;2023-07-29T02:37:54;4.60;;;3.13;;
15931;SDS011;8065;49.520;11.284;2023-07-29T02:40:23;3.30;;;3.10;;
15931;SDS011;8065;49.520;11.284;2023-07-29T02:42:51;3.83;;;3.53;;
15931;SDS011;8065;49.520;11.284;2023-07-29T02:45:20;4.37;;;3.97;;
15931;SDS011;8065;49.520;11.284;2023-07-29T02:47:48;3.90;;;3.60;;
15931;SDS011;8065;49.520;11.284;2023-07-29T02:50:19;3.90;;;3.47;;
15931;SDS011;8065;49.520;11.284;2023-07-29T02:52:47;4.73;;;3.80;;
15931;SDS011;8065;49.520;11.284;2023-07-29T02:55:17;4.17;;;3.77;;
15931;SDS011;8065;49.520;11.284;2023-07-29T02:57:45;5.30;;;3.33;;
15931;SDS011;8065;49.520;11.284;2023-07-29T03:00:13;4.03;;;3.57;;
15931;SDS011;8065;49.520;11.284;2023-07-29T03:02:42;3.90;;;3.60;;
15931;SDS011;8065;49.520;11.284;2023-07-29T03:05:10;4.57;;;3.50;;
15931;SDS011;8065;49.520;11.284;2023-07-29T03:07:41;4.03;;;3.73;;
15931;SDS011;8065;49.520;11.284;2023-07-29T03:10:10;4.00;;;3.60;;
15931;SDS011;8065;49.520;11.284;2023-07-29T03:12:40;4.27;;;3.70;;
15931;SDS011;8065;49.520;11.284;2023-07-29T03:15:08;4.10;;;3.80;;
15931;SDS011;8065;49.520;11.284;2023-07-29T03:17:37;3.53;;;3.23;;
15931;SDS011;8065;49.520;11.284;2023-07-29T03:20:06;3.40;;;3.20;;
15931;SDS011;8065;49.520;11.284;2023-07-29T03:22:35;4.63;;;4.13;;
15931;SDS011;8065;49.520;11.284;2023-07-29T03:25:06;4.97;;;3.60;;
15931;SDS011;8065;49.520;11.284;2023-07-29T03:27:35;3.77;;;3.40;;
15931;SDS011;8065;49.520;11.284;2023-07-29T03:30:05;3.83;;;3.53;;
15931;SDS011;8065;49.520;11.284;2023-07-29T03:32:34;3.70;;;3.27;;
15931;SDS011;8065;49.520;11.284;2023-07-29T03:35:02;3.63;;;3.33;;
15931;SDS011;8065;49.520;11.284;2023-07-29T03:37:31;3.97;;;3.40;;
15931;SDS011;8065;49.520;11.284;2023-07-29T03:39:59;4.33;;;3.80;;
15931;SDS011;8065;49.520;11.284;2023-07-29T03:42:30;4.27;;;3.73;;
15931;SDS011;8065;49.520;11.284;2023-07-29T03:44:59;4.50;;;4.10;;
15931;SDS011;8065;49.520;11.284;2023-07-29T03:47:27;3.90;;;3.60;;
15931;SDS011;8065;49.520;11.284;2023-07-29T03:49:55;4.40;;;4.10;;
15931;SDS011;8065;49.520;11.284;2023-07-29T03:52:24;4.60;;;4.23;;
15931;SDS011;8065;49.520;11.284;2023-07-29T03:54:52;4.27;;;3.87;;
15931;SDS011;8065;49.520;11.284;2023-07-29T03:57:21;4.70;;;4.30;;
15931;SDS011;8065;49.520;11.284;2023-07-29T03:59:51;5.07;;;4.67;;
15931;SDS011;8065;49.520;11.284;2023-07-29T04:02:20;4.30;;;4.00;;
15931;SDS011;8065;49.520;11.284;2023-07-29T04:04:48;6.57;;;4.90;;
15931;SDS011;8065;49.520;11.284;2023-07-29T04:07:17;5.00;;;4.60;;
15931;SDS011;8065;49.520;11.284;2023-07-29T04:09:45;4.97;;;4.47;;
15931;SDS011;8065;49.520;11.284;2023-07-29T04:12:14;4.30;;;4.00;;
15931;SDS011;8065;49.520;11.284;2023-07-29T04:14:44;4.97;;;4.47;;
15931;SDS011;8065;49.520;11.284;2023-07-29T04:17:15;4.93;;;4.50;;
15931;SDS011;8065;49.520;11.284;2023-07-29T04:19:43;4.27;;;3.97;;
15931;SDS011;8065;49.520;11.284;2023-07-29T04:22:11;5.00;;;4.60;;
15931;SDS011;8065;49.520;11.284;2023-07-29T04:24:40;4.83;;;4.10;;
15931;SDS011;8065;49.520;11.284;2023-07-29T04:27:08;4.30;;;4.00;;
15931;SDS011;8065;49.520;11.284;2023-07-29T04:29:37;3.90;;;3.60;;
15931;SDS011;8065;49.520;11.284;2023-07-29T04:32:05;4.07;;;3.67;;
15931;SDS011;8065;49.520;11.284;2023-07-29T04:34:36;5.33;;;4.00;;
15931;SDS011;8065;49.520;11.284;2023-07-29T04:37:05;5.27;;;3.90;;
15931;SDS011;8065;49.520;11.284;2023-07-29T04:39:33;3.70;;;3.40;;
15931;SDS011;8065;49.520;11.284;2023-07-29T04:42:02;4.57;;;3.53;;
15931;SDS011;8065;49.520;11.284;2023-07-29T04:44:30;4.37;;;3.70;;
15931;SDS011;8065;49.520;11.284;2023-07-29T04:46:58;3.97;;;3.60;;
15931;SDS011;8065;49.520;11.284;2023-07-29T04:49:27;4.27;;;3.40;;
15931;SDS011;8065;49.520;11.284;2023-07-29T04:51:58;5.00;;;4.17;;
15931;SDS011;8065;49.520;11.284;2023-07-29T04:54:26;4.80;;;4.30;;
15931;SDS011;8065;49.520;11.284;2023-07-29T04:56:54;4.57;;;4.10;;
15931;SDS011;8065;49.520;11.284;2023-07-29T04:59:22;4.10;;;3.80;;
15931;SDS011;8065;49.520;11.284;2023-07-29T05:01:51;4.57;;;3.40;;
15931;SDS011;8065;49.520;11.284;2023-07-29T05:04:19;3.80;;;3.50;;
15931;SDS011;8065;49.520;11.284;2023-07-29T05:06:47;4.80;;;4.00;;
15931;SDS011;8065;49.520;11.284;2023-07-29T05:09:18;4.27;;;3.33;;
15931;SDS011;8065;49.520;11.284;2023-07-29T05:11:47;3.17;;;2.80;;
15931;SDS011;8065;49.520;11.284;2023-07-29T05:14:16;3.23;;;2.90;;
15931;SDS011;8065;49.520;11.284;2023-07-29T05:16:45;3.40;;;3.10;;
15931;SDS011;8065;49.520;11.284;2023-07-29T05:19:14;5.00;;;3.10;;
15931;SDS011;8065;49.520;11.284;2023-07-29T05:21:42;3.40;;;3.10;;
15931;SDS011;8065;49.520;11.284;2023-07-29T05:24:10;3.33;;;3.00;;
15931;SDS011;8065;49.520;11.284;2023-07-29T05:26:41;3.80;;;3.50;;
15931;SDS011;8065;49.520;11.284;2023-07-29T05:29:09;3.30;;;3.00;;
15931;SDS011;8065;49.520;11.284;2023-07-29T05:31:37;3.70;;;3.40;;
15931;SDS011;8065;49.520;11.284;2023-07-29T05:34:06;3.33;;;2.57;;
15931;SDS011;8065;49.520;11.284;2023-07-29T05:36:34;3.63;;;2.50;;
15931;SDS011;8065;49.520;11.284;2023-07-29T05:39:02;3.10;;;2.53;;
15931;SDS011;8065;49.520;11.284;2023-07-29T05:41:32;2.67;;;2.47;;
15931;SDS011;8065;49.520;11.284;2023-07-29T05:44:03;3.70;;;2.67;;
15931;SDS011;8065;49.520;11.284;2023-07-29T05:46:31;3.20;;;2.90;;
15931;SDS011;8065;49.520;11.284;2023-07-29T05:49:00;2.83;;;2.50;;
15931;SDS011;8065;49.520;11.284;2023-07-29T05:51:28;2.80;;;2.60;;
15931;SDS011;8065;49.520;11.284;2023-07-29T05:53:56;2.43;;;2.23;;
15931;SDS011;8065;49.520;11.284;2023-07-29T05:56:24;3.83;;;2.80;;
15931;SDS011;8065;49.520;11.284;2023-07-29T05:58:53;4.67;;;2.33;;
15931;SDS011;8065;49.520;11.284;2023-07-29T06:01:23;2.50;;;2.30;;
15931;SDS011;8065;49.520;11.284;2023-07-29T06:03:52;2.13;;;2.03;;
15931;SDS011;8065;49.520;11.284;2023-07-29T06:06:20;2.57;;;2.37;;
15931;SDS011;8065;49.520;11.284;2023-07-29T06:08:49;3.63;;;2.40;;
15931;SDS011;8065;49.520;11.284;2023-07-29T06:11:17;2.20;;;2.00;;
15931;SDS011;8065;49.520;11.284;2023-07-29T06:13:47;2.20;;;2.10;;
15931;SDS011;8065;49.520;11.284;2023-07-29T06:16:15;2.57;;;2.10;;
15931;SDS011;8065;49.520;11.284;2023-07-29T06:18:46;1.90;;;1.80;;
15931;SDS011;8065;49.520;11.284;2023-07-29T06:21:15;2.40;;;2.20;;
15931;SDS011;8065;49.520;11.284;2023-07-29T06:23:45;2.10;;;2.00;;
15931;SDS011;8065;49.520;11.284;2023-07-29T06:26:13;2.30;;;2.20;;
15931;SDS011;8065;49.520;11.284;2023-07-29T06:28:41;2.43;;;2.30;;
15931;SDS011;8065;49.520;11.284;2023-07-29T06:31:10;2.13;;;2.03;;
15931;SDS011;8065;49.520;11.284;2023-07-29T06:33:38;2.17;;;2.07;;
15931;SDS011;8065;49.520;11.284;2023-07-29T06:36:09;2.50;;;2.30;;
15931;SDS011;8065;49.520;11.284;2023-07-29T06:38:38;2.70;;;2.10;;
15931;SDS011;8065;49.520;11.284;2023-07-29T06:41:07;3.73;;;2.30;;
15931;SDS011;8065;49.520;11.284;2023-07-29T06:43:35;2.27;;;2.17;;
15931;SDS011;8065;49.520;11.284;2023-07-29T06:46:03;2.30;;;2.10;;
15931;SDS011;8065;49.520;11.284;2023-07-29T06:48:31;2.50;;;2.30;;
15931;SDS011;8065;49.520;11.284;2023-07-29T06:51:00;2.50;;;2.30;;
15931;SDS011;8065;49.520;11.284;2023-07-29T06:53:31;2.60;;;2.40;;
15931;SDS011;8065;49.520;11.284;2023-07-29T06:55:59;2.73;;;2.53;;
15931;SDS011;8065;49.520;11.284;2023-07-29T06:58:27;2.97;;;2.50;;
15931;SDS011;8065;49.520;11.284;2023-07-29T07:00:56;3.33;;;2.80;;
15931;SDS011;8065;49.520;11.284;2023-07-29T07:03:24;3.83;;;2.80;;
15931;SDS011;8065;49.520;11.284;2023-07-29T07:05:52;5.83;;;3.20;;
15931;SDS011;8065;49.520;11.284;2023-07-29T07:08:20;4.00;;;2.40;;
15931;SDS011;8065;49.520;11.284;2023-07-29T07:10:51;3.97;;;2.80;;
15931;SDS011;8065;49.520;11.284;2023-07-29T07:13:20;3.10;;;2.77;;
15931;SDS011;8065;49.520;11.284;2023-07-29T07:15:48;3.77;;;2.70;;
15931;SDS011;8065;49.520;11.284;2023-07-29T07:18:16;3.93;;;2.83;;
15931;SDS011;8065;49.520;11.284;2023-07-29T07:20:47;2.73;;;2.53;;
15931;SDS011;8065;49.520;11.284;2023-07-29T07:23:16;2.40;;;2.20;;
15931;SDS011;8065;49.520;11.284;2023-07-29T07:25:44;2.70;;;2.50;;
15931;SDS011;8065;49.520;11.284;2023-07-29T07:28:15;2.77;;;2.53;;
15931;SDS011;8065;49.520;11.284;2023-07-29T07:30:43;3.87;;;2.20;;
15931;SDS011;8065;49.520;11.284;2023-07-29T07:33:11;2.27;;;2.13;;
15931;SDS011;8065;49.520;11.284;2023-07-29T07:35:40;4.30;;;2.50;;
15931;SDS011;8065;49.520;11.284;2023-07-29T07:38:09;2.87;;;2.40;;
15931;SDS011;8065;49.520;11.284;2023-07-29T07:40:37;2.20;;;2.07;;
15931;SDS011;8065;49.520;11.284;2023-07-29T07:43:05;2.30;;;2.10;;
15931;SDS011;8065;49.520;11.284;2023-07-29T07:45:36;2.17;;;2.00;;
15931;SDS011;8065;49.520;11.284;2023-07-29T07:48:05;3.10;;;2.80;;
15931;SDS011;8065;49.520;11.284;2023-07-29T07:50:35;3.13;;;2.50;;
15931;SDS011;8065;49.520;11.284;2023-07-29T07:53:03;2.47;;;2.27;;
15931;SDS011;8065;49.520;11.284;2023-07-29T07:55:31;2.93;;;2.53;;
15931;SDS011;8065;49.520;11.284;2023-07-29T07:58:00;3.20;;;2.60;;
15931;SDS011;8065;49.520;11.284;2023-07-29T08:00:28;2.87;;;2.23;;
15931;SDS011;8065;49.520;11.284;2023-07-29T08:02:59;2.90;;;2.33;;
15931;SDS011;8065;49.520;11.284;2023-07-29T08:05:27;3.40;;;2.60;;
15931;SDS011;8065;49.520;11.284;2023-07-29T08:07:55;2.70;;;2.27;;
15931;SDS011;8065;49.520;11.284;2023-07-29T08:10:24;3.10;;;2.77;;
15931;SDS011;8065;49.520;11.284;2023-07-29T08:12:52;3.03;;;2.53;;
15931;SDS011;8065;49.520;11.284;2023-07-29T08:15:20;3.20;;;2.90;;
15931;SDS011;8065;49.520;11.284;2023-07-29T08:17:49;2.90;;;2.60;;
15931;SDS011;8065;49.520;11.284;2023-07-29T08:20:19;3.67;;;2.60;;
15931;SDS011;8065;49.520;11.284;2023-07-29T08:22:48;4.10;;;2.70;;
15931;SDS011;8065;49.520;11.284;2023-07-29T08:25:16;2.90;;;2.63;;
15931;SDS011;8065;49.520;11.284;2023-07-29T08:27:44;4.00;;;3.43;;
15931;SDS011;8065;49.520;11.284;2023-07-29T08:30:12;3.40;;;2.97;;
15931;SDS011;8065;49.520;11.284;2023-07-29T08:32:41;3.30;;;3.00;;
15931;SDS011;8065;49.520;11.284;2023-07-29T08:35:09;3.57;;;3.27;;
15931;SDS011;8065;49.520;11.284;2023-07-29T08:37:40;4.33;;;3.50;;
15931;SDS011;8065;49.520;11.284;2023-07-29T08:40:09;3.97;;;3.60;;
15931;SDS011;8065;49.520;11.284;2023-07-29T08:42:38;4.83;;;3.70;;
15931;SDS011;8065;49.520;11.284;2023-07-29T08:45:08;4.60;;;3.50;;
15931;SDS011;8065;49.520;11.284;2023-07-29T08:47:37;4.20;;;3.53;;
15931;SDS011;8065;49.520;11.284;2023-07-29T08:50:06;6.37;;;3.30;;
15931;SDS011;8065;49.520;11.284;2023-07-29T08:52:36;4.77;;;3.10;;
15931;SDS011;8065;49.520;11.284;2023-07-29T08:55:08;2.87;;;2.67;;
15931;SDS011;8065;49.520;11.284;2023-07-29T08:57:37;3.53;;;3.23;;
15931;SDS011;8065;49.520;11.284;2023-07-29T09:00:06;3.30;;;3.00;;
15931;SDS011;8065;49.520;11.284;2023-07-29T09:02:35;3.30;;;2.93;;
15931;SDS011;8065;49.520;11.284;2023-07-29T09:05:04;2.97;;;2.77;;
15931;SDS011;8065;49.520;11.284;2023-07-29T09:07:33;4.27;;;2.70;;
15931;SDS011;8065;49.520;11.284;2023-07-29T09:10:04;2.97;;;2.70;;
15931;SDS011;8065;49.520;11.284;2023-07-29T09:12:39;3.10;;;2.90;;
15931;SDS011;8065;49.520;11.284;2023-07-29T09:15:08;3.00;;;2.70;;
15931;SDS011;8065;49.520;11.284;2023-07-29T09:17:37;2.70;;;2.50;;
15931;SDS011;8065;49.520;11.284;2023-07-29T09:20:06;2.67;;;2.47;;
15931;SDS011;8065;49.520;11.284;2023-07-29T09:22:38;2.83;;;2.63;;
15931;SDS011;8065;49.520;11.284;2023-07-29T09:25:07;2.30;;;2.20;;
15931;SDS011;8065;49.520;11.284;2023-07-29T09:27:38;3.90;;;2.43;;
15931;SDS011;8065;49.520;11.284;2023-07-29T09:30:07;2.60;;;2.40;;
15931;SDS011;8065;49.520;11.284;2023-07-29T09:32:43;4.00;;;3.20;;
15931;SDS011;8065;49.520;11.284;2023-07-29T09:35:12;18.97;;;12.80;;
15931;SDS011;8065;49.520;11.284;2023-07-29T09:37:41;7.20;;;5.20;;
15931;SDS011;8065;49.520;11.284;2023-07-29T09:40:13;3.23;;;2.70;;
15931;SDS011;8065;49.520;11.284;2023-07-29T09:42:49;2.73;;;2.53;;
15931;SDS011;8065;49.520;11.284;2023-07-29T09:45:19;3.33;;;2.70;;
15931;SDS011;8065;49.520;11.284;2023-07-29T09:47:49;3.27;;;2.40;;
15931;SDS011;8065;49.520;11.284;2023-07-29T09:50:17;2.67;;;2.47;;
15931;SDS011;8065;49.520;11.284;2023-07-29T09:52:46;3.20;;;2.70;;
15931;SDS011;8065;49.520;11.284;2023-07-29T09:55:17;3.17;;;2.60;;
15931;SDS011;8065;49.520;11.284;2023-07-29T09:57:46;3.23;;;2.93;;
15931;SDS011;8065;49.520;11.284;2023-07-29T10:00:17;3.10;;;2.90;;
15931;SDS011;8065;49.520;11.284;2023-07-29T10:02:46;3.80;;;3.10;;
15931;SDS011;8065;49.520;11.284;2023-07-29T10:05:15;5.27;;;3.47;;
15931;SDS011;8065;49.520;11.284;2023-07-29T10:07:44;3.27;;;3.07;;
15931;SDS011;8065;49.520;11.284;2023-07-29T10:10:14;3.93;;;3.57;;
15931;SDS011;8065;49.520;11.284;2023-07-29T10:12:42;3.07;;;2.70;;
15931;SDS011;8065;49.520;11.284;2023-07-29T10:15:11;3.93;;;3.63;;
15931;SDS011;8065;49.520;11.284;2023-07-29T10:17:42;3.53;;;3.20;;
15931;SDS011;8065;49.520;11.284;2023-07-29T10:20:10;3.20;;;2.93;;
15931;SDS011;8065;49.520;11.284;2023-07-29T10:22:39;3.80;;;3.43;;
15931;SDS011;8065;49.520;11.284;2023-07-29T10:25:12;3.50;;;3.20;;
15931;SDS011;8065;49.520;11.284;2023-07-29T10:27:48;3.73;;;3.43;;
15931;SDS011;8065;49.520;11.284;2023-07-29T10:30:20;3.27;;;2.93;;
15931;SDS011;8065;49.520;11.284;2023-07-29T10:32:51;3.40;;;3.10;;
15931;SDS011;8065;49.520;11.284;2023-07-29T10:35:20;4.07;;;3.10;;
15931;SDS011;8065;49.520;11.284;2023-07-29T10:37:50;3.90;;;3.10;;
15931;SDS011;8065;49.520;11.284;2023-07-29T10:40:19;3.90;;;3.60;;
15931;SDS011;8065;49.520;11.284;2023-07-29T10:43:00;3.80;;;3.50;;
15931;SDS011;8065;49.520;11.284;2023-07-29T10:45:36;4.07;;;3.40;;
15931;SDS011;8065;49.520;11.284;2023-07-29T10:48:09;4.10;;;3.70;;
15931;SDS011;8065;49.520;11.284;2023-07-29T10:50:38;4.80;;;3.80;;
15931;SDS011;8065;49.520;11.284;2023-07-29T10:53:07;4.77;;;3.57;;
15931;SDS011;8065;49.520;11.284;2023-07-29T10:55:35;4.57;;;3.80;;
15931;SDS011;8065;49.520;11.284;2023-07-29T10:58:04;4.33;;;3.97;;
15931;SDS011;8065;49.520;11.284;2023-07-29T11:00:37;5.20;;;3.80;;
15931;SDS011;8065;49.520;11.284;2023-07-29T11:03:09;6.00;;;3.77;;
15931;SDS011;8065;49.520;11.284;2023-07-29T11:05:41;4.00;;;3.50;;
15931;SDS011;8065;49.520;11.284;2023-07-29T11:08:17;4.43;;;3.20;;
15931;SDS011;8065;49.520;11.284;2023-07-29T11:11:01;3.57;;;3.27;;
15931;SDS011;8065;49.520;11.284;2023-07-29T11:13:31;3.83;;;3.53;;
15931;SDS011;8065;49.520;11.284;2023-07-29T11:16:01;3.73;;;3.40;;
15931;SDS011;8065;49.520;11.284;2023-07-29T11:18:33;3.37;;;3.07;;
15931;SDS011;8065;49.520;11.284;2023-07-29T11:21:03;3.30;;;3.10;;
15931;SDS011;8065;49.520;11.284;2023-07-29T11:23:32;3.40;;;3.10;;
15931;SDS011;8065;49.520;11.284;2023-07-29T11:26:02;3.33;;;3.03;;
15931;SDS011;8065;49.520;11.284;2023-07-29T11:28:37;3.40;;;2.97;;
15931;SDS011;8065;49.520;11.284;2023-07-29T11:31:06;2.73;;;2.53;;
15931;SDS011;8065;49.520;11.284;2023-07-29T11:33:38;2.60;;;2.40;;
15931;SDS011;8065;49.520;11.284;2023-07-29T11:36:07;2.60;;;2.40;;
15931;SDS011;8065;49.520;11.284;2023-07-29T11:38:45;2.80;;;2.60;;
15931;SDS011;8065;49.520;11.284;2023-07-29T11:41:18;2.90;;;2.57;;
15931;SDS011;8065;49.520;11.284;2023-07-29T11:43:47;3.33;;;2.20;;
15931;SDS011;8065;49.520;11.284;2023-07-29T11:46:16;2.23;;;2.13;;
15931;SDS011;8065;49.520;11.284;2023-07-29T11:48:53;2.50;;;2.30;;
15931;SDS011;8065;49.520;11.284;2023-07-29T11:51:22;3.13;;;2.30;;
15931;SDS011;8065;49.520;11.284;2023-07-29T11:53:51;2.13;;;2.00;;
15931;SDS011;8065;49.520;11.284;2023-07-29T11:56:19;2.10;;;2.00;;
15931;SDS011;8065;49.520;11.284;2023-07-29T11:58:47;2.57;;;2.13;;
15931;SDS011;8065;49.520;11.284;2023-07-29T12:01:17;2.60;;;2.27;;
15931;SDS011;8065;49.520;11.284;2023-07-29T12:03:45;2.43;;;2.00;;
15931;SDS011;8065;49.520;11.284;2023-07-29T12:06:17;3.60;;;2.20;;
15931;SDS011;8065;49.520;11.284;2023-07-29T12:08:45;2.03;;;1.93;;
15931;SDS011;8065;49.520;11.284;2023-07-29T12:11:14;2.17;;;2.00;;
15931;SDS011;8065;49.520;11.284;2023-07-29T12:13:43;3.80;;;2.33;;
15931;SDS011;8065;49.520;11.284;2023-07-29T12:16:15;2.30;;;2.10;;
15931;SDS011;8065;49.520;11.284;2023-07-29T12:18:44;2.00;;;1.90;;
15931;SDS011;8065;49.520;11.284;2023-07-29T12:21:13;3.00;;;2.10;;
15931;SDS011;8065;49.520;11.284;2023-07-29T12:23:44;2.30;;;2.10;;
15931;SDS011;8065;49.520;11.284;2023-07-29T12:26:13;2.07;;;1.97;;
15931;SDS011;8065;49.520;11.284;2023-07-29T12:28:44;1.80;;;1.70;;
15931;SDS011;8065;49.520;11.284;2023-07-29T12:31:13;1.87;;;1.77;;
15931;SDS011;8065;49.520;11.284;2023-07-29T12:33:42;2.00;;;1.90;;
15931;SDS011;8065;49.520;11.284;2023-07-29T12:36:10;2.67;;;1.97;;
15931;SDS011;8065;49.520;11.284;2023-07-29T12:38:41;1.90;;;1.70;;
15931;SDS011;8065;49.520;11.284;2023-07-29T12:41:10;2.03;;;1.83;;
15931;SDS011;8065;49.520;11.284;2023-07-29T12:43:38;1.77;;;1.67;;
15931;SDS011;8065;49.520;11.284;2023-07-29T12:46:07;2.70;;;1.83;;
15931;SDS011;8065;49.520;11.284;2023-07-29T12:48:35;2.00;;;1.80;;
15931;SDS011;8065;49.520;11.284;2023-07-29T12:51:03;2.20;;;1.90;;
15931;SDS011;8065;49.520;11.284;2023-07-29T12:53:31;2.23;;;1.90;;
15931;SDS011;8065;49.520;11.284;2023-07-29T12:56:02;2.60;;;2.07;;
15931;SDS011;8065;49.520;11.284;2023-07-29T12:58:31;2.50;;;2.00;;
15931;SDS011;8065;49.520;11.284;2023-07-29T13:00:59;2.23;;;2.00;;
15931;SDS011;8065;49.520;11.284;2023-07-29T13:03:27;1.83;;;1.73;;
15931;SDS011;8065;49.520;11.284;2023-07-29T13:05:56;2.13;;;1.80;;
15931;SDS011;8065;49.520;11.284;2023-07-29T13:08:24;3.33;;;2.00;;
15931;SDS011;8065;49.520;11.284;2023-07-29T13:10:52;3.03;;;1.93;;
15931;SDS011;8065;49.520;11.284;2023-07-29T13:13:23;2.40;;;1.83;;
15931;SDS011;8065;49.520;11.284;2023-07-29T13:15:51;2.07;;;1.97;;
15931;SDS011;8065;49.520;11.284;2023-07-29T13:18:20;2.83;;;1.90;;
15931;SDS011;8065;49.520;11.284;2023-07-29T13:20:49;1.80;;;1.70;;
15931;SDS011;8065;49.520;11.284;2023-07-29T13:23:17;2.50;;;2.00;;
15931;SDS011;8065;49.520;11.284;2023-07-29T13:25:45;1.70;;;1.60;;
15931;SDS011;8065;49.520;11.284;2023-07-29T13:28:13;2.23;;;1.60;;
15931;SDS011;8065;49.520;11.284;2023-07-29T13:30:44;2.27;;;2.07;;
15931;SDS011;8065;49.520;11.284;2023-07-29T13:33:13;1.90;;;1.80;;
15931;SDS011;8065;49.520;11.284;2023-07-29T13:35:41;1.33;;;1.30;;
15931;SDS011;8065;49.520;11.284;2023-07-29T13:38:10;1.73;;;1.50;;
15931;SDS011;8065;49.520;11.284;2023-07-29T13:40:38;2.23;;;1.97;;
15931;SDS011;8065;49.520;11.284;2023-07-29T13:43:07;2.67;;;1.60;;
15931;SDS011;8065;49.520;11.284;2023-07-29T13:45:35;1.80;;;1.50;;
15931;SDS011;8065;49.520;11.284;2023-07-29T13:48:06;1.47;;;1.37;;
15931;SDS011;8065;49.520;11.284;2023-07-29T13:50:34;1.73;;;1.63;;
15931;SDS011;8065;49.520;11.284;2023-07-29T13:53:02;1.80;;;1.70;;
15931;SDS011;8065;49.520;11.284;2023-07-29T13:55:31;1.83;;;1.70;;
15931;SDS011;8065;49.520;11.284;2023-07-29T13:57:59;1.90;;;1.80;;
15931;SDS011;8065;49.520;11.284;2023-07-29T14:00:27;1.67;;;1.57;;
15931;SDS011;8065;49.520;11.284;2023-07-29T14:02:55;2.13;;;1.50;;
15931;SDS011;8065;49.520;11.284;2023-07-29T14:05:26;2.27;;;1.40;;
15931;SDS011;8065;49.520;11.284;2023-07-29T14:07:55;2.80;;;1.60;;
15931;SDS011;8065;49.520;11.284;2023-07-29T14:10:23;1.80;;;1.70;;
15931;SDS011;8065;49.520;11.284;2023-07-29T14:12:52;1.30;;;1.20;;
15931;SDS011;8065;49.520;11.284;2023-07-29T14:15:21;1.40;;;1.30;;
15931;SDS011;8065;49.520;11.284;2023-07-29T14:17:49;1.53;;;1.43;;
15931;SDS011;8065;49.520;11.284;2023-07-29T14:20:17;1.30;;;1.20;;
15931;SDS011;8065;49.520;11.284;2023-07-29T14:22:48;1.90;;;1.30;;
15931;SDS011;8065;49.520;11.284;2023-07-29T14:25:16;1.50;;;1.40;;
15931;SDS011;8065;49.520;11.284;2023-07-29T14:27:45;1.40;;;1.30;;
15931;SDS011;8065;49.520;11.284;2023-07-29T14:30:13;1.43;;;1.33;;
15931;SDS011;8065;49.520;11.284;2023-07-29T14:32:41;1.57;;;1.47;;
15931;SDS011;8065;49.520;11.284;2023-07-29T14:35:10;1.67;;;1.57;;
15931;SDS011;8065;49.520;11.284;2023-07-29T14:37:38;1.70;;;1.40;;
15931;SDS011;8065;49.520;11.284;2023-07-29T14:40:09;1.60;;;1.50;;
15931;SDS011;8065;49.520;11.284;2023-07-29T14:42:38;1.57;;;1.47;;
15931;SDS011;8065;49.520;11.284;2023-07-29T14:45:06;1.47;;;1.37;;
15931;SDS011;8065;49.520;11.284;2023-07-29T14:47:35;2.20;;;2.00;;
15931;SDS011;8065;49.520;11.284;2023-07-29T14:50:04;1.07;;;1.07;;
15931;SDS011;8065;49.520;11.284;2023-07-29T14:52:32;3.17;;;1.37;;
15931;SDS011;8065;49.520;11.284;2023-07-29T14:55:01;1.33;;;1.10;;
15931;SDS011;8065;49.520;11.284;2023-07-29T14:57:31;1.00;;;1.00;;
15931;SDS011;8065;49.520;11.284;2023-07-29T15:00:00;2.70;;;1.60;;
15931;SDS011;8065;49.520;11.284;2023-07-29T15:02:28;1.03;;;1.00;;
15931;SDS011;8065;49.520;11.284;2023-07-29T15:04:57;1.63;;;1.20;;